Time;durP1;ratioP1;P1;durP2;ratioP2;P2;SDS_P1;SDS_P2;PMS_P1;PMS_P2;Temp;Humidity;BMP_temperature;BMP_pressure;BME280_temperature;BME280_humidity;BME280_pressure;Samples;Min_cycle;Max_cycle;Signal;HPM_P1;HPM_P2
2023/08/26 00:00:29;;;;;;;22.05;17.88;;;;;;;;;;5029082;28;20432;-68
2023/08/26 00:02:55;;;;;;;27.05;17.83;;;;;;;;;;5027584;28;20190;-68
2023/08/26 00:05:20;;;;;;;24.95;17.88;;;;;;;;;;5029668;28;20269;-68
2023/08/26 00:07:46;;;;;;;22.20;17.42;;;;;;;;;;5029867;28;20198;-67
2023/08/26 00:10:11;;;;;;;21.48;16.50;;;;;;;;;;5026011;28;20209;-68
2023/08/26 00:12:37;;;;;;;25.73;17.50;;;;;;;;;;5027939;28;20190;-68
2023/08/26 00:15:03;;;;;;;24.25;16.90;;;;;;;;;;5022326;28;20271;-68
2023/08/26 00:17:28;;;;;;;26.73;17.27;;;;;;;;;;5040391;28;20214;-68
2023/08/26 00:19:54;;;;;;;24.90;16.48;;;;;;;;;;5010801;28;20214;-68
2023/08/26 00:22:20;;;;;;;20.05;16.02;;;;;;;;;;5010357;28;20584;-69
2023/08/26 00:24:47;;;;;;;23.27;17.65;;;;;;;;;;5010200;28;20194;-68
2023/08/26 00:27:12;;;;;;;23.27;16.35;;;;;;;;;;5025987;28;20193;-68
2023/08/26 00:29:38;;;;;;;20.67;16.80;;;;;;;;;;5026994;28;20194;-68
2023/08/26 00:32:04;;;;;;;21.70;16.40;;;;;;;;;;5033116;28;20182;-68
2023/08/26 00:34:29;;;;;;;20.77;16.48;;;;;;;;;;5022403;28;20197;-68
2023/08/26 00:36:54;;;;;;;21.65;16.45;;;;;;;;;;5018568;28;20186;-68
2023/08/26 00:39:20;;;;;;;19.83;15.52;;;;;;;;;;5025744;28;20565;-69
2023/08/26 00:41:46;;;;;;;20.58;15.50;;;;;;;;;;5022966;28;20294;-69
2023/08/26 00:44:11;;;;;;;23.73;15.65;;;;;;;;;;5015888;28;20249;-68
2023/08/26 00:46:37;;;;;;;20.77;14.52;;;;;;;;;;5028961;28;20193;-69
2023/08/26 00:49:03;;;;;;;20.48;15.05;;;;;;;;;;5022303;28;20222;-68
2023/08/26 00:51:29;;;;;;;19.58;14.15;;;;;;;;;;5023079;28;20239;-68
2023/08/26 00:53:54;;;;;;;16.92;12.77;;;;;;;;;;5001539;28;20193;-68
2023/08/26 00:56:21;;;;;;;19.75;12.52;;;;;;;;;;5026076;28;20264;-68
2023/08/26 00:58:46;;;;;;;17.45;12.50;;;;;;;;;;5031320;28;20193;-68
2023/08/26 01:01:12;;;;;;;19.85;11.70;;;;;;;;;;5022596;28;20219;-69
2023/08/26 01:03:38;;;;;;;12.55;10.90;;;;;;;;;;5024196;28;20250;-69
2023/08/26 01:06:03;;;;;;;14.85;11.73;;;;;;;;;;5022522;28;20201;-69
2023/08/26 01:08:30;;;;;;;14.50;11.45;;;;;;;;;;5012649;28;20183;-69
2023/08/26 01:11:06;;;;;;;13.75;11.20;;;;;;;;;;5015256;28;20218;-68
2023/08/26 01:13:52;;;;;;;16.17;11.95;;;;;;;;;;5025874;28;20296;-68
2023/08/26 01:16:21;;;;;;;19.85;11.30;;;;;;;;;;5017475;28;20611;-68
2023/08/26 01:18:47;;;;;;;20.17;11.45;;;;;;;;;;5027530;28;20290;-69
2023/08/26 01:21:14;;;;;;;17.67;11.35;;;;;;;;;;5024467;28;20289;-69
2023/08/26 01:23:41;;;;;;;16.70;11.13;;;;;;;;;;5031725;28;20195;-69
2023/08/26 01:26:07;;;;;;;17.00;11.57;;;;;;;;;;5025549;28;20597;-69
2023/08/26 01:28:32;;;;;;;19.38;11.15;;;;;;;;;;5029431;28;20183;-69
2023/08/26 01:31:10;;;;;;;15.45;10.80;;;;;;;;;;5034736;28;20194;-69
2023/08/26 01:33:50;;;;;;;13.93;10.52;;;;;;;;;;5030263;28;20205;-68
2023/08/26 01:36:19;;;;;;;16.58;10.75;;;;;;;;;;5032981;28;20225;-69
2023/08/26 01:38:46;;;;;;;16.25;11.18;;;;;;;;;;5031011;28;20510;-69
2023/08/26 01:41:17;;;;;;;14.02;10.48;;;;;;;;;;5028563;28;20214;-70
2023/08/26 01:43:42;;;;;;;16.65;10.23;;;;;;;;;;5027765;28;20230;-69
2023/08/26 01:46:08;;;;;;;15.05;10.45;;;;;;;;;;5028630;28;20186;-67
2023/08/26 01:48:33;;;;;;;17.25;11.10;;;;;;;;;;5031336;28;20190;-67
2023/08/26 01:50:59;;;;;;;16.58;10.60;;;;;;;;;;5031729;28;20194;-67
2023/08/26 01:53:24;;;;;;;16.13;10.80;;;;;;;;;;5030162;28;20194;-67
2023/08/26 01:55:49;;;;;;;17.23;10.50;;;;;;;;;;5032267;28;20205;-67
2023/08/26 01:58:15;;;;;;;17.75;11.88;;;;;;;;;;5031592;28;20185;-68
2023/08/26 02:00:40;;;;;;;17.05;11.02;;;;;;;;;;5029667;28;20198;-68
2023/08/26 02:03:06;;;;;;;17.65;12.30;;;;;;;;;;5022684;28;20198;-67
2023/08/26 02:05:31;;;;;;;17.80;13.23;;;;;;;;;;5027694;28;20182;-67
2023/08/26 02:07:56;;;;;;;18.30;13.50;;;;;;;;;;5025299;28;20277;-68
2023/08/26 02:10:22;;;;;;;17.58;12.27;;;;;;;;;;5027458;28;20616;-68
2023/08/26 02:12:47;;;;;;;18.40;13.70;;;;;;;;;;5028761;28;20198;-68
2023/08/26 02:15:12;;;;;;;19.60;13.85;;;;;;;;;;5023386;28;20244;-68
2023/08/26 02:17:38;;;;;;;17.45;13.13;;;;;;;;;;5029727;28;20336;-68
2023/08/26 02:20:04;;;;;;;20.58;14.00;;;;;;;;;;5023524;28;20186;-68
2023/08/26 02:22:30;;;;;;;20.23;13.32;;;;;;;;;;5030666;28;20201;-68
2023/08/26 02:24:55;;;;;;;19.45;13.38;;;;;;;;;;5016512;28;20209;-68
2023/08/26 02:27:20;;;;;;;23.88;12.98;;;;;;;;;;5021557;28;20210;-68
2023/08/26 02:29:46;;;;;;;21.23;14.02;;;;;;;;;;5029291;28;20605;-68
2023/08/26 02:32:13;;;;;;;19.75;13.40;;;;;;;;;;5042307;28;20201;-68
2023/08/26 02:34:38;;;;;;;20.92;14.80;;;;;;;;;;5023035;28;20240;-67
2023/08/26 02:37:03;;;;;;;23.88;15.07;;;;;;;;;;5030198;28;20190;-67
2023/08/26 02:39:29;;;;;;;20.13;13.13;;;;;;;;;;5030447;28;20194;-68
2023/08/26 02:41:54;;;;;;;24.10;19.17;;;;;;;;;;5030381;28;20352;-68
2023/08/26 02:44:19;;;;;;;33.80;21.05;;;;;;;;;;5025365;28;20252;-68
2023/08/26 02:46:45;;;;;;;32.95;21.10;;;;;;;;;;5030582;28;20303;-68
2023/08/26 02:49:10;;;;;;;27.58;17.95;;;;;;;;;;5028709;28;20581;-68
2023/08/26 02:51:36;;;;;;;28.02;17.35;;;;;;;;;;5025667;28;20202;-68
2023/08/26 02:54:01;;;;;;;21.58;15.00;;;;;;;;;;5028988;28;20665;-68
2023/08/26 02:56:26;;;;;;;24.73;16.77;;;;;;;;;;5031193;28;20197;-67
2023/08/26 02:58:52;;;;;;;24.45;15.48;;;;;;;;;;5030309;28;20190;-68
2023/08/26 03:01:17;;;;;;;22.00;15.27;;;;;;;;;;5021684;28;20664;-68
2023/08/26 03:03:42;;;;;;;19.85;14.60;;;;;;;;;;5028755;28;20269;-68
2023/08/26 03:06:08;;;;;;;23.30;13.85;;;;;;;;;;5027698;28;20201;-68
2023/08/26 03:08:33;;;;;;;23.85;15.05;;;;;;;;;;5030687;28;20190;-68
2023/08/26 03:11:01;;;;;;;22.02;14.07;;;;;;;;;;5018062;28;20269;-68
2023/08/26 03:13:26;;;;;;;22.40;14.48;;;;;;;;;;5030420;28;20587;-68
2023/08/26 03:15:51;;;;;;;22.73;14.65;;;;;;;;;;5028735;28;20204;-68
2023/08/26 03:18:17;;;;;;;22.45;15.65;;;;;;;;;;5031399;28;20605;-68
2023/08/26 03:20:42;;;;;;;21.60;15.23;;;;;;;;;;5030503;28;20238;-68
2023/08/26 03:23:08;;;;;;;19.92;14.23;;;;;;;;;;5030961;28;20580;-68
2023/08/26 03:25:37;;;;;;;22.80;14.05;;;;;;;;;;5022914;28;20220;-68
2023/08/26 03:28:02;;;;;;;17.50;13.00;;;;;;;;;;5043348;28;20195;-68
2023/08/26 03:30:28;;;;;;;16.70;12.93;;;;;;;;;;5031615;28;20259;-68
2023/08/26 03:32:53;;;;;;;20.75;13.00;;;;;;;;;;5031509;28;20186;-68
2023/08/26 03:35:18;;;;;;;22.88;13.95;;;;;;;;;;5024359;28;20277;-68
2023/08/26 03:37:44;;;;;;;18.90;14.07;;;;;;;;;;5023137;28;20237;-69
2023/08/26 03:40:10;;;;;;;23.50;14.35;;;;;;;;;;5023294;28;20200;-68
2023/08/26 03:42:35;;;;;;;18.05;13.93;;;;;;;;;;5026331;28;20217;-69
2023/08/26 03:45:01;;;;;;;18.70;14.07;;;;;;;;;;5015978;28;20325;-69
2023/08/26 03:47:26;;;;;;;18.77;12.55;;;;;;;;;;5029046;28;20204;-69
2023/08/26 03:49:51;;;;;;;16.77;13.50;;;;;;;;;;5025149;28;20278;-68
2023/08/26 03:52:17;;;;;;;18.75;13.77;;;;;;;;;;5023129;28;20663;-68
2023/08/26 03:54:42;;;;;;;19.13;12.95;;;;;;;;;;5030082;28;20281;-68
2023/08/26 03:57:08;;;;;;;19.55;12.73;;;;;;;;;;5030880;28;20205;-68
2023/08/26 03:59:33;;;;;;;19.77;12.98;;;;;;;;;;5028292;28;20286;-68
2023/08/26 04:01:59;;;;;;;19.45;12.73;;;;;;;;;;5021250;28;20309;-68
2023/08/26 04:04:24;;;;;;;17.58;12.93;;;;;;;;;;5027914;28;20591;-68
2023/08/26 04:06:49;;;;;;;15.88;11.70;;;;;;;;;;5017863;28;20227;-68
2023/08/26 04:09:15;;;;;;;21.50;13.02;;;;;;;;;;5029799;28;20190;-68
2023/08/26 04:11:42;;;;;;;20.70;13.68;;;;;;;;;;5022090;28;20264;-68
2023/08/26 04:14:08;;;;;;;21.58;15.00;;;;;;;;;;5029607;28;20284;-68
2023/08/26 04:16:33;;;;;;;20.17;14.82;;;;;;;;;;5027711;28;20261;-68
2023/08/26 04:18:58;;;;;;;20.33;14.63;;;;;;;;;;5018079;28;20255;-68
2023/08/26 04:21:24;;;;;;;24.10;16.33;;;;;;;;;;5024740;28;20676;-68
2023/08/26 04:23:49;;;;;;;22.30;15.60;;;;;;;;;;5029053;28;20268;-68
2023/08/26 04:26:14;;;;;;;22.38;16.75;;;;;;;;;;5030102;28;20232;-67
2023/08/26 04:28:40;;;;;;;26.45;18.67;;;;;;;;;;5028383;28;20229;-69
2023/08/26 04:31:07;;;;;;;30.48;20.77;;;;;;;;;;5015086;28;20289;-71
2023/08/26 04:33:33;;;;;;;26.80;20.85;;;;;;;;;;5027228;28;20186;-75
2023/08/26 04:35:58;;;;;;;30.05;21.45;;;;;;;;;;5016426;28;20264;-75
2023/08/26 04:38:24;;;;;;;27.83;20.80;;;;;;;;;;5028819;28;20277;-73
2023/08/26 04:40:49;;;;;;;26.63;22.17;;;;;;;;;;5021659;28;20241;-71
2023/08/26 04:43:14;;;;;;;28.63;21.67;;;;;;;;;;5029896;28;20718;-74
2023/08/26 04:45:40;;;;;;;31.02;21.73;;;;;;;;;;5010922;28;20198;-72
2023/08/26 04:48:07;;;;;;;29.02;23.25;;;;;;;;;;5029025;28;20645;-73
2023/08/26 04:50:32;;;;;;;29.38;23.08;;;;;;;;;;5016998;28;20214;-72
2023/08/26 04:52:58;;;;;;;32.72;22.63;;;;;;;;;;5014428;28;20227;-73
2023/08/26 04:55:23;;;;;;;32.38;19.92;;;;;;;;;;5015048;28;20186;-71
2023/08/26 04:57:48;;;;;;;24.27;19.08;;;;;;;;;;5031869;28;20723;-71
2023/08/26 05:00:16;;;;;;;31.08;19.92;;;;;;;;;;5022455;28;20191;-71
2023/08/26 05:02:42;;;;;;;30.88;20.13;;;;;;;;;;5018205;28;20286;-72
2023/08/26 05:05:07;;;;;;;30.80;19.77;;;;;;;;;;5027853;28;20373;-74
2023/08/26 05:07:33;;;;;;;29.27;20.00;;;;;;;;;;5025686;28;20191;-71
2023/08/26 05:09:59;;;;;;;35.58;21.13;;;;;;;;;;5030084;28;20202;-72
2023/08/26 05:12:24;;;;;;;32.53;21.42;;;;;;;;;;5032445;28;20194;-72
2023/08/26 05:14:50;;;;;;;34.25;20.83;;;;;;;;;;5025146;28;20194;-71
2023/08/26 05:17:16;;;;;;;33.80;20.85;;;;;;;;;;5031023;28;20249;-70
2023/08/26 05:19:42;;;;;;;40.35;23.33;;;;;;;;;;5029109;28;20229;-71
2023/08/26 05:22:07;;;;;;;33.72;21.65;;;;;;;;;;5031390;28;20210;-70
2023/08/26 05:24:34;;;;;;;31.95;21.25;;;;;;;;;;5027863;28;20195;-68
2023/08/26 05:26:59;;;;;;;38.38;21.73;;;;;;;;;;5028243;28;20339;-68
2023/08/26 05:29:24;;;;;;;28.77;20.80;;;;;;;;;;5030708;28;20696;-68
2023/08/26 05:31:50;;;;;;;28.40;20.60;;;;;;;;;;5030874;28;20275;-68
2023/08/26 05:34:15;;;;;;;34.35;19.77;;;;;;;;;;5027142;28;20190;-68
2023/08/26 05:36:40;;;;;;;27.67;16.77;;;;;;;;;;5027852;28;20193;-68
2023/08/26 05:39:06;;;;;;;28.33;17.25;;;;;;;;;;5031800;28;20568;-68
2023/08/26 05:41:31;;;;;;;24.30;16.55;;;;;;;;;;5031620;28;20317;-70
2023/08/26 05:43:57;;;;;;;20.75;14.20;;;;;;;;;;5023744;28;20711;-70
2023/08/26 05:46:22;;;;;;;21.80;15.15;;;;;;;;;;5026890;28;20206;-67
2023/08/26 05:48:47;;;;;;;26.75;15.55;;;;;;;;;;5028116;28;20255;-68
2023/08/26 05:51:13;;;;;;;21.13;13.90;;;;;;;;;;5021250;28;20197;-68
2023/08/26 05:53:38;;;;;;;16.67;12.93;;;;;;;;;;5026187;28;20286;-70
2023/08/26 05:56:04;;;;;;;16.67;12.55;;;;;;;;;;5028376;28;20178;-67
2023/08/26 05:58:29;;;;;;;22.25;12.15;;;;;;;;;;5030119;28;20198;-70
2023/08/26 06:00:54;;;;;;;18.88;12.45;;;;;;;;;;5018120;28;20219;-69
2023/08/26 06:03:20;;;;;;;19.17;10.98;;;;;;;;;;5026587;28;20280;-68
2023/08/26 06:05:46;;;;;;;16.85;10.27;;;;;;;;;;5024644;28;20215;-67
2023/08/26 06:08:11;;;;;;;13.52;8.70;;;;;;;;;;5013858;28;20194;-68
2023/08/26 06:10:36;;;;;;;16.30;8.13;;;;;;;;;;5024445;28;20178;-67
2023/08/26 06:13:02;;;;;;;17.25;8.07;;;;;;;;;;5025465;28;20222;-67
2023/08/26 06:15:27;;;;;;;10.90;7.88;;;;;;;;;;5023214;28;20194;-67
2023/08/26 06:17:53;;;;;;;16.48;7.93;;;;;;;;;;5015851;28;20228;-68
2023/08/26 06:20:18;;;;;;;10.05;6.75;;;;;;;;;;5021625;28;20729;-67
2023/08/26 06:22:45;;;;;;;12.05;6.53;;;;;;;;;;5028056;28;20292;-67
2023/08/26 06:25:11;;;;;;;13.88;7.50;;;;;;;;;;5024589;28;20530;-68
2023/08/26 06:27:36;;;;;;;17.50;7.35;;;;;;;;;;5028195;28;20204;-67
2023/08/26 06:30:03;;;;;;;13.95;6.43;;;;;;;;;;5030892;28;20193;-68
2023/08/26 06:32:29;;;;;;;11.88;6.38;;;;;;;;;;5011963;28;20740;-68
2023/08/26 06:34:54;;;;;;;14.98;6.47;;;;;;;;;;5029565;28;20256;-68
2023/08/26 06:37:20;;;;;;;14.43;7.20;;;;;;;;;;5036931;28;20198;-67
2023/08/26 06:39:45;;;;;;;16.75;6.72;;;;;;;;;;5032331;28;20197;-67
2023/08/26 06:42:11;;;;;;;11.90;5.85;;;;;;;;;;5029982;28;20222;-68
2023/08/26 06:44:36;;;;;;;13.50;5.90;;;;;;;;;;5031554;28;20222;-67
2023/08/26 06:47:01;;;;;;;12.75;6.05;;;;;;;;;;5021835;28;20264;-68
2023/08/26 06:49:27;;;;;;;14.93;6.57;;;;;;;;;;5028392;28;20292;-68
2023/08/26 06:51:52;;;;;;;13.02;5.60;;;;;;;;;;5029214;28;20186;-67
2023/08/26 06:54:18;;;;;;;13.90;6.57;;;;;;;;;;5025475;28;20222;-67
2023/08/26 06:56:43;;;;;;;13.20;5.75;;;;;;;;;;5030300;28;20558;-67
2023/08/26 06:59:08;;;;;;;12.60;6.50;;;;;;;;;;5031196;28;20622;-66
2023/08/26 07:01:34;;;;;;;14.35;6.38;;;;;;;;;;5029428;28;21090;-67
2023/08/26 07:04:17;;;;;;;10.77;6.00;;;;;;;;;;5030134;28;20192;-67
2023/08/26 07:06:43;;;;;;;12.13;6.25;;;;;;;;;;5016416;28;20186;-67
2023/08/26 07:09:10;;;;;;;11.98;6.15;;;;;;;;;;5021887;28;20676;-66
2023/08/26 07:11:35;;;;;;;13.20;6.05;;;;;;;;;;5020146;28;20697;-67
2023/08/26 07:14:01;;;;;;;8.27;5.80;;;;;;;;;;5023804;28;20293;-69
2023/08/26 07:16:26;;;;;;;10.73;5.50;;;;;;;;;;5023454;28;20194;-72
2023/08/26 07:18:52;;;;;;;13.75;6.10;;;;;;;;;;5027646;28;20299;-66
2023/08/26 07:21:17;;;;;;;10.20;6.35;;;;;;;;;;5030519;28;20221;-67
2023/08/26 07:23:42;;;;;;;14.05;6.00;;;;;;;;;;5025654;28;20194;-67
2023/08/26 07:26:08;;;;;;;13.50;6.35;;;;;;;;;;5019349;28;20284;-67
2023/08/26 07:28:33;;;;;;;15.55;6.40;;;;;;;;;;5028648;28;20190;-67
2023/08/26 07:31:03;;;;;;;12.77;5.45;;;;;;;;;;5032274;28;20190;-67
2023/08/26 07:33:29;;;;;;;10.27;5.85;;;;;;;;;;5030617;28;20475;-67
2023/08/26 07:36:02;;;;;;;15.30;6.28;;;;;;;;;;5029207;28;20248;-67
2023/08/26 07:38:28;;;;;;;9.82;5.55;;;;;;;;;;5030200;28;20248;-71
2023/08/26 07:40:53;;;;;;;8.40;5.45;;;;;;;;;;5023635;28;20210;-68
2023/08/26 07:43:19;;;;;;;10.57;5.35;;;;;;;;;;5028932;28;20190;-68
2023/08/26 07:45:44;;;;;;;11.00;5.20;;;;;;;;;;5026769;28;20197;-68
2023/08/26 07:48:09;;;;;;;12.43;6.00;;;;;;;;;;5020095;28;20291;-68
2023/08/26 07:50:35;;;;;;;14.85;5.60;;;;;;;;;;5029321;28;20223;-67
2023/08/26 07:53:00;;;;;;;9.98;5.13;;;;;;;;;;5018152;28;20417;-68
2023/08/26 07:55:25;;;;;;;8.60;4.85;;;;;;;;;;5027921;28;20198;-68
2023/08/26 07:57:51;;;;;;;11.90;5.38;;;;;;;;;;5025466;28;20622;-71
2023/08/26 08:00:16;;;;;;;11.48;4.60;;;;;;;;;;5029091;28;20324;-67
2023/08/26 08:02:42;;;;;;;11.32;5.47;;;;;;;;;;5025410;28;20696;-68
2023/08/26 08:05:07;;;;;;;12.48;5.40;;;;;;;;;;5026613;28;20259;-68
2023/08/26 08:07:33;;;;;;;10.63;4.70;;;;;;;;;;5020544;28;20189;-68
2023/08/26 08:09:59;;;;;;;8.90;4.40;;;;;;;;;;5029897;28;20197;-67
2023/08/26 08:12:24;;;;;;;12.93;4.22;;;;;;;;;;5026170;28;20194;-67
2023/08/26 08:14:50;;;;;;;6.90;3.80;;;;;;;;;;5029448;28;20190;-68
2023/08/26 08:17:15;;;;;;;9.40;4.82;;;;;;;;;;5025420;28;20221;-70
2023/08/26 08:19:45;;;;;;;9.05;4.90;;;;;;;;;;5024333;28;20186;-68
2023/08/26 08:22:11;;;;;;;10.02;4.60;;;;;;;;;;5022526;28;20636;-68
2023/08/26 08:24:36;;;;;;;11.35;4.65;;;;;;;;;;5033368;28;20190;-71
2023/08/26 08:27:02;;;;;;;8.50;4.13;;;;;;;;;;5036357;28;20395;-68
2023/08/26 08:29:27;;;;;;;11.18;4.35;;;;;;;;;;5035051;28;20197;-71
2023/08/26 08:31:52;;;;;;;9.30;4.82;;;;;;;;;;5029866;28;20217;-70
2023/08/26 08:34:18;;;;;;;9.05;3.88;;;;;;;;;;5034028;28;20264;-68
2023/08/26 08:36:43;;;;;;;7.47;3.95;;;;;;;;;;5030373;28;20244;-70
2023/08/26 08:39:08;;;;;;;9.05;3.72;;;;;;;;;;5032581;28;20253;-68
2023/08/26 08:41:37;;;;;;;12.38;4.38;;;;;;;;;;5008658;28;20713;-69
2023/08/26 08:44:10;;;;;;;8.48;4.03;;;;;;;;;;5028499;28;20225;-68
2023/08/26 08:46:36;;;;;;;12.07;4.20;;;;;;;;;;5029075;28;20631;-69
2023/08/26 08:49:03;;;;;;;5.88;3.78;;;;;;;;;;5027895;28;20193;-67
2023/08/26 08:51:29;;;;;;;6.65;3.58;;;;;;;;;;5030864;28;20194;-68
2023/08/26 08:53:55;;;;;;;10.68;3.50;;;;;;;;;;5027609;28;20220;-68
2023/08/26 08:56:22;;;;;;;7.20;3.28;;;;;;;;;;5027908;28;20191;-68
2023/08/26 08:58:51;;;;;;;10.18;3.20;;;;;;;;;;5026279;28;20625;-70
2023/08/26 09:01:22;;;;;;;6.82;2.80;;;;;;;;;;5033189;28;20234;-68
2023/08/26 09:03:48;;;;;;;9.15;3.20;;;;;;;;;;5021856;28;20240;-68
2023/08/26 09:06:13;;;;;;;8.50;3.40;;;;;;;;;;5009932;28;20191;-69
2023/08/26 09:08:39;;;;;;;6.50;3.22;;;;;;;;;;5029480;28;20594;-69
2023/08/26 09:11:05;;;;;;;7.85;2.97;;;;;;;;;;5022158;28;20190;-69
2023/08/26 09:13:31;;;;;;;6.30;3.15;;;;;;;;;;5027129;28;20244;-69
2023/08/26 09:15:56;;;;;;;7.93;2.70;;;;;;;;;;5019377;28;20182;-70
2023/08/26 09:18:22;;;;;;;7.38;3.03;;;;;;;;;;5029276;28;20440;-69
2023/08/26 09:20:47;;;;;;;12.02;2.92;;;;;;;;;;5028887;28;20210;-69
2023/08/26 09:23:13;;;;;;;5.68;2.50;;;;;;;;;;5024578;28;20190;-69
2023/08/26 09:25:38;;;;;;;5.82;2.80;;;;;;;;;;5034384;28;20272;-69
2023/08/26 09:28:04;;;;;;;7.47;2.33;;;;;;;;;;5030906;28;20193;-69
2023/08/26 09:30:30;;;;;;;6.07;2.60;;;;;;;;;;5032673;28;20633;-68
2023/08/26 09:32:56;;;;;;;6.28;2.50;;;;;;;;;;5031653;28;20201;-70
2023/08/26 09:35:22;;;;;;;5.75;2.65;;;;;;;;;;5030569;28;20189;-69
2023/08/26 09:37:56;;;;;;;4.63;2.35;;;;;;;;;;5031567;28;20256;-70
2023/08/26 09:40:21;;;;;;;6.35;2.30;;;;;;;;;;4330536;28;10000729;-71
2023/08/26 09:42:47;;;;;;;6.63;2.47;;;;;;;;;;5022350;28;20283;-71
2023/08/26 09:45:17;;;;;;;7.00;2.70;;;;;;;;;;5027583;28;20222;-69
2023/08/26 09:47:44;;;;;;;8.25;2.40;;;;;;;;;;5027819;28;20196;-69
2023/08/26 09:50:10;;;;;;;7.20;3.05;;;;;;;;;;5022474;28;20198;-70
2023/08/26 09:52:43;;;;;;;3.65;2.28;;;;;;;;;;5018646;28;20198;-74
2023/08/26 09:55:10;;;;;;;5.45;2.20;;;;;;;;;;5023425;28;20418;-70
2023/08/26 09:57:35;;;;;;;7.72;1.88;;;;;;;;;;5016816;28;20422;-70
2023/08/26 10:00:01;;;;;;;3.90;2.00;;;;;;;;;;5020324;28;20494;-70
2023/08/26 10:02:28;;;;;;;5.78;1.73;;;;;;;;;;5025242;28;20230;-73
2023/08/26 10:04:56;;;;;;;6.68;2.53;;;;;;;;;;5005556;28;20518;-68
2023/08/26 10:07:27;;;;;;;7.30;2.35;;;;;;;;;;5031110;28;20680;-69
2023/08/26 10:10:00;;;;;;;6.72;2.38;;;;;;;;;;5022464;28;20190;-68
2023/08/26 10:12:39;;;;;;;9.23;2.97;;;;;;;;;;5026366;28;20194;-71
2023/08/26 10:15:10;;;;;;;5.88;2.40;;;;;;;;;;5026890;28;20673;-69
2023/08/26 10:17:40;;;;;;;4.70;2.05;;;;;;;;;;5022000;28;20229;-70
2023/08/26 10:20:07;;;;;;;5.07;1.80;;;;;;;;;;5023042;28;20190;-70
2023/08/26 10:22:33;;;;;;;5.28;1.95;;;;;;;;;;5032790;28;20224;-69
2023/08/26 10:24:59;;;;;;;7.25;2.58;;;;;;;;;;5029623;28;20642;-69
2023/08/26 10:27:25;;;;;;;4.55;2.25;;;;;;;;;;5023577;28;20367;-69
2023/08/26 10:29:50;;;;;;;4.47;2.35;;;;;;;;;;5025923;28;20768;-69
2023/08/26 10:32:21;;;;;;;6.68;2.15;;;;;;;;;;5022196;28;20543;-74
2023/08/26 10:34:58;;;;;;;6.50;1.63;;;;;;;;;;5029701;28;20710;-69
2023/08/26 10:37:27;;;;;;;6.32;1.40;;;;;;;;;;5025667;28;20218;-68
2023/08/26 10:39:54;;;;;;;5.28;1.55;;;;;;;;;;5018970;28;20252;-68
2023/08/26 10:42:21;;;;;;;6.25;1.85;;;;;;;;;;5027204;28;20256;-71
2023/08/26 10:44:55;;;;;;;7.07;1.80;;;;;;;;;;5028998;28;20222;-71
2023/08/26 10:47:36;;;;;;;4.38;1.58;;;;;;;;;;5026187;28;20194;-69
2023/08/26 10:50:14;;;;;;;5.68;1.45;;;;;;;;;;5025504;28;20530;-68
2023/08/26 10:52:42;;;;;;;2.92;1.33;;;;;;;;;;5025309;28;20618;-70
2023/08/26 10:55:28;;;;;;;4.15;1.40;;;;;;;;;;5019911;28;20292;-68
2023/08/26 10:58:10;;;;;;;3.50;1.40;;;;;;;;;;5022431;28;20685;-69
2023/08/26 11:00:37;;;;;;;3.88;1.40;;;;;;;;;;5027280;28;20559;-69
2023/08/26 11:03:03;;;;;;;2.65;0.98;;;;;;;;;;5027900;28;20186;-69
2023/08/26 11:05:29;;;;;;;3.60;1.25;;;;;;;;;;5026793;28;20201;-69
2023/08/26 11:07:56;;;;;;;5.13;1.52;;;;;;;;;;5019032;28;20213;-69
2023/08/26 11:10:31;;;;;;;2.78;1.17;;;;;;;;;;5028779;28;20186;-69
2023/08/26 11:12:57;;;;;;;7.50;1.50;;;;;;;;;;5024455;28;20351;-69
2023/08/26 11:15:23;;;;;;;3.33;0.88;;;;;;;;;;5028452;28;20249;-71
2023/08/26 11:17:49;;;;;;;4.00;1.30;;;;;;;;;;5024416;28;20215;-68
2023/08/26 11:20:16;;;;;;;2.95;1.38;;;;;;;;;;5024192;28;20197;-69
2023/08/26 11:22:42;;;;;;;3.15;1.02;;;;;;;;;;5029488;28;20542;-69
2023/08/26 11:25:12;;;;;;;4.38;1.20;;;;;;;;;;5026577;28;20201;-69
2023/08/26 11:27:38;;;;;;;3.58;1.40;;;;;;;;;;5008911;28;20189;-72
2023/08/26 11:30:10;;;;;;;4.10;1.38;;;;;;;;;;4999153;28;20190;-72
2023/08/26 11:32:37;;;;;;;4.63;1.20;;;;;;;;;;5025827;28;20198;-72
2023/08/26 11:35:07;;;;;;;21.35;6.90;;;;;;;;;;5029498;28;20645;-73
2023/08/26 11:37:44;;;;;;;4.65;1.50;;;;;;;;;;5031641;28;20197;-73
2023/08/26 11:40:11;;;;;;;4.45;1.33;;;;;;;;;;5028676;28;20201;-72
2023/08/26 11:42:36;;;;;;;6.85;1.50;;;;;;;;;;5029723;28;20218;-72
2023/08/26 11:45:03;;;;;;;3.83;1.30;;;;;;;;;;5023593;28;20299;-73
2023/08/26 11:47:30;;;;;;;4.13;1.40;;;;;;;;;;5032450;28;20221;-72
2023/08/26 11:49:56;;;;;;;3.42;1.15;;;;;;;;;;5032612;28;20243;-73
2023/08/26 11:52:35;;;;;;;4.28;1.40;;;;;;;;;;5032397;28;20585;-72
2023/08/26 11:55:06;;;;;;;4.35;1.17;;;;;;;;;;5031690;28;20247;-74
2023/08/26 11:57:35;;;;;;;3.47;1.30;;;;;;;;;;5028774;28;20184;-73
2023/08/26 12:00:11;;;;;;;3.67;0.93;;;;;;;;;;5025386;28;20509;-72
2023/08/26 12:02:36;;;;;;;4.32;1.40;;;;;;;;;;4676160;28;9999786;-72
2023/08/26 12:05:02;;;;;;;4.63;1.60;;;;;;;;;;5012872;28;20192;-76
2023/08/26 12:07:31;;;;;;;5.88;1.40;;;;;;;;;;5032734;28;20268;-74
2023/08/26 12:09:59;;;;;;;6.30;1.35;;;;;;;;;;5011223;28;20198;-72
2023/08/26 12:12:24;;;;;;;3.80;1.40;;;;;;;;;;5035107;28;20328;-72
2023/08/26 12:14:51;;;;;;;5.50;1.30;;;;;;;;;;5017988;28;20187;-72
2023/08/26 12:17:17;;;;;;;4.65;1.00;;;;;;;;;;5023992;28;20210;-77
2023/08/26 12:19:43;;;;;;;3.33;0.93;;;;;;;;;;5020447;28;20200;-72
2023/08/26 12:22:10;;;;;;;6.40;1.15;;;;;;;;;;5017985;28;20292;-76
2023/08/26 12:24:39;;;;;;;4.53;1.10;;;;;;;;;;5026934;28;20217;-73
2023/08/26 12:27:09;;;;;;;3.03;0.90;;;;;;;;;;5027422;28;20305;-73
2023/08/26 12:29:35;;;;;;;3.65;1.30;;;;;;;;;;5023164;28;20212;-74
2023/08/26 12:32:00;;;;;;;3.78;0.77;;;;;;;;;;5029856;28;20200;-72
2023/08/26 12:34:26;;;;;;;4.38;1.30;;;;;;;;;;5023573;28;20194;-73
2023/08/26 12:36:51;;;;;;;4.82;1.10;;;;;;;;;;5033660;28;20198;-72
2023/08/26 12:39:17;;;;;;;7.20;1.52;;;;;;;;;;5036179;28;20590;-72
2023/08/26 12:41:42;;;;;;;3.05;1.00;;;;;;;;;;5016820;28;20209;-73
2023/08/26 12:44:07;;;;;;;2.25;1.08;;;;;;;;;;5020638;28;20234;-72
2023/08/26 12:46:34;;;;;;;1.35;0.82;;;;;;;;;;5024726;28;20182;-72
2023/08/26 12:49:00;;;;;;;2.72;1.40;;;;;;;;;;5027442;28;20194;-72
2023/08/26 12:51:26;;;;;;;2.80;1.10;;;;;;;;;;5025428;28;20201;-75
2023/08/26 12:53:56;;;;;;;2.17;0.95;;;;;;;;;;5013853;28;20238;-74
2023/08/26 12:56:23;;;;;;;6.45;1.30;;;;;;;;;;5012269;28;20525;-72
2023/08/26 12:58:49;;;;;;;3.20;1.13;;;;;;;;;;5017071;28;20272;-76
2023/08/26 13:01:15;;;;;;;3.10;0.95;;;;;;;;;;5012958;28;20238;-73
2023/08/26 13:03:42;;;;;;;9.18;1.30;;;;;;;;;;5023353;28;20953;-75
2023/08/26 13:06:07;;;;;;;3.75;1.00;;;;;;;;;;5027947;28;20262;-73
2023/08/26 13:08:33;;;;;;;2.10;0.98;;;;;;;;;;5026185;28;20285;-72
2023/08/26 13:10:59;;;;;;;1.95;0.85;;;;;;;;;;5028706;28;20182;-72
2023/08/26 13:13:25;;;;;;;3.08;0.90;;;;;;;;;;5033166;28;20193;-73
2023/08/26 13:15:50;;;;;;;3.33;0.88;;;;;;;;;;5033622;28;20194;-73
2023/08/26 13:18:15;;;;;;;1.90;0.80;;;;;;;;;;5025257;28;20206;-74
2023/08/26 13:20:41;;;;;;;1.35;0.70;;;;;;;;;;5027047;28;20951;-72
2023/08/26 13:23:09;;;;;;;1.77;0.75;;;;;;;;;;5028979;28;20174;-73
2023/08/26 13:25:34;;;;;;;4.00;1.00;;;;;;;;;;5026863;28;20253;-73
2023/08/26 13:28:00;;;;;;;1.85;0.80;;;;;;;;;;5025026;28;20673;-72
2023/08/26 13:30:26;;;;;;;3.78;0.98;;;;;;;;;;5013053;28;20201;-72
2023/08/26 13:32:51;;;;;;;3.53;0.80;;;;;;;;;;5030206;28;20684;-73
2023/08/26 13:35:17;;;;;;;2.08;1.00;;;;;;;;;;5032492;28;20520;-73
2023/08/26 13:37:42;;;;;;;3.60;0.60;;;;;;;;;;5019339;28;20518;-72
2023/08/26 13:40:08;;;;;;;1.67;0.60;;;;;;;;;;5020383;28;20212;-75
2023/08/26 13:42:33;;;;;;;1.92;0.77;;;;;;;;;;5018606;28;20209;-74
2023/08/26 13:44:59;;;;;;;3.03;0.75;;;;;;;;;;5016032;28;20249;-72
2023/08/26 13:47:25;;;;;;;1.83;0.60;;;;;;;;;;5031743;28;20193;-73
2023/08/26 13:49:50;;;;;;;1.55;0.60;;;;;;;;;;5016600;28;20221;-73
2023/08/26 13:52:16;;;;;;;4.53;0.95;;;;;;;;;;5025590;28;20214;-74
2023/08/26 13:54:43;;;;;;;3.17;1.00;;;;;;;;;;5027491;28;20171;-74
2023/08/26 13:57:09;;;;;;;2.30;1.00;;;;;;;;;;5033919;28;20193;-74
2023/08/26 13:59:34;;;;;;;2.72;0.70;;;;;;;;;;5023087;28;20820;-73
2023/08/26 14:02:00;;;;;;;3.40;0.90;;;;;;;;;;5016853;28;20209;-73
2023/08/26 14:04:26;;;;;;;3.90;0.80;;;;;;;;;;5026908;28;20256;-73
2023/08/26 14:06:51;;;;;;;2.50;0.60;;;;;;;;;;5024186;28;20282;-73
2023/08/26 14:09:17;;;;;;;2.42;0.60;;;;;;;;;;5026633;28;20197;-74
2023/08/26 14:11:43;;;;;;;2.40;0.40;;;;;;;;;;5043369;28;20634;-73
2023/08/26 14:14:10;;;;;;;1.70;0.70;;;;;;;;;;4711472;28;10001176;-72
2023/08/26 14:16:36;;;;;;;2.78;0.77;;;;;;;;;;5004782;28;20411;-72
2023/08/26 14:19:01;;;;;;;1.42;0.63;;;;;;;;;;5021823;28;20285;-72
2023/08/26 14:21:27;;;;;;;2.55;0.65;;;;;;;;;;5040247;28;20301;-72
2023/08/26 14:23:53;;;;;;;5.88;0.98;;;;;;;;;;5025461;28;20190;-73